Terminal Aerodrome Forecast
Issued by NWS Wakefield, VA

Home | Current Version | Previous Version | Text Only | Print | Product List | Glossary On
Versions: 1 2 3 4 5 6 7 8 9 10 11 12 13 14
394
FTUS41 KAKQ 261720
TAFECG
TAF
KECG 261720Z 2618/2718 19006KT P6SM FEW045
     FM270400 VRB04KT P6SM SCT060
     FM271400 05006KT P6SM SCT060=

USA.gov is the U.S. government's official web portal to all federal, state and local government web resources and services.